sensor_id;sensor_type;location;lat;lon;timestamp;temperature;humidity
35043;DHT22;21230;51.170;17.024;2022-11-21T00:00:00;-4.30;99.90
35043;DHT22;21230;51.170;17.024;2022-11-21T00:02:25;-4.30;99.90
35043;DHT22;21230;51.170;17.024;2022-11-21T00:04:51;-4.30;99.90
35043;DHT22;21230;51.170;17.024;2022-11-21T00:07:16;-4.30;99.90
35043;DHT22;21230;51.170;17.024;2022-11-21T00:09:42;-4.40;99.90
35043;DHT22;21230;51.170;17.024;2022-11-21T00:12:08;-4.40;99.90
35043;DHT22;21230;51.170;17.024;2022-11-21T00:14:33;-4.40;99.90
35043;DHT22;21230;51.170;17.024;2022-11-21T00:16:59;-4.40;99.90
35043;DHT22;21230;51.170;17.024;2022-11-21T00:19:25;-4.40;99.90
35043;DHT22;21230;51.170;17.024;2022-11-21T00:21:50;-4.40;99.90
35043;DHT22;21230;51.170;17.024;2022-11-21T00:24:16;-4.40;99.90
35043;DHT22;21230;51.170;17.024;2022-11-21T00:26:41;-4.40;99.90
35043;DHT22;21230;51.170;17.024;2022-11-21T00:29:07;-4.40;99.90
35043;DHT22;21230;51.170;17.024;2022-11-21T00:31:33;-4.40;99.90
35043;DHT22;21230;51.170;17.024;2022-11-21T00:33:58;-4.40;99.90
35043;DHT22;21230;51.170;17.024;2022-11-21T00:36:24;-4.40;99.90
35043;DHT22;21230;51.170;17.024;2022-11-21T00:38:50;-4.40;99.90
35043;DHT22;21230;51.170;17.024;2022-11-21T00:41:15;-4.30;99.90
35043;DHT22;21230;51.170;17.024;2022-11-21T00:43:41;-4.20;99.90
35043;DHT22;21230;51.170;17.024;2022-11-21T00:46:06;-4.10;99.90
35043;DHT22;21230;51.170;17.024;2022-11-21T00:48:32;-4.00;99.90
35043;DHT22;21230;51.170;17.024;2022-11-21T00:50:58;-3.90;99.90
35043;DHT22;21230;51.170;17.024;2022-11-21T00:53:24;-4.00;99.90
35043;DHT22;21230;51.170;17.024;2022-11-21T00:55:50;-4.00;99.90
35043;DHT22;21230;51.170;17.024;2022-11-21T00:58:16;-4.00;99.90
35043;DHT22;21230;51.170;17.024;2022-11-21T01:00:41;-4.00;99.90
35043;DHT22;21230;51.170;17.024;2022-11-21T01:03:07;-4.00;99.90
35043;DHT22;21230;51.170;17.024;2022-11-21T01:05:32;-3.90;99.90
35043;DHT22;21230;51.170;17.024;2022-11-21T01:07:58;-3.80;99.90
35043;DHT22;21230;51.170;17.024;2022-11-21T01:10:24;-3.80;99.90
35043;DHT22;21230;51.170;17.024;2022-11-21T01:12:49;-3.60;99.90
35043;DHT22;21230;51.170;17.024;2022-11-21T01:15:15;-3.40;99.90
35043;DHT22;21230;51.170;17.024;2022-11-21T01:17:41;-3.30;99.90
35043;DHT22;21230;51.170;17.024;2022-11-21T01:20:07;-3.30;99.90
35043;DHT22;21230;51.170;17.024;2022-11-21T01:22:32;-3.20;99.90
35043;DHT22;21230;51.170;17.024;2022-11-21T01:24:58;-3.20;99.90
35043;DHT22;21230;51.170;17.024;2022-11-21T01:27:24;-3.20;99.90
35043;DHT22;21230;51.170;17.024;2022-11-21T01:29:49;-3.10;99.90
35043;DHT22;21230;51.170;17.024;2022-11-21T01:32:16;-3.10;99.90
35043;DHT22;21230;51.170;17.024;2022-11-21T01:34:42;-3.10;99.90
35043;DHT22;21230;51.170;17.024;2022-11-21T01:37:08;-3.00;99.90
35043;DHT22;21230;51.170;17.024;2022-11-21T01:39:34;-2.90;99.90
35043;DHT22;21230;51.170;17.024;2022-11-21T01:41:59;-2.80;99.90
35043;DHT22;21230;51.170;17.024;2022-11-21T01:44:26;-2.70;99.90
35043;DHT22;21230;51.170;17.024;2022-11-21T01:46:52;-2.60;99.90
35043;DHT22;21230;51.170;17.024;2022-11-21T01:51:54;-2.50;99.90
35043;DHT22;21230;51.170;17.024;2022-11-21T01:54:23;-2.40;99.90
35043;DHT22;21230;51.170;17.024;2022-11-21T01:57:13;-2.40;99.90
35043;DHT22;21230;51.170;17.024;2022-11-21T01:59:41;-2.30;99.90
35043;DHT22;21230;51.170;17.024;2022-11-21T02:02:10;-2.30;99.90
35043;DHT22;21230;51.170;17.024;2022-11-21T02:04:36;-2.20;99.90
35043;DHT22;21230;51.170;17.024;2022-11-21T02:07:03;-2.20;99.90
35043;DHT22;21230;51.170;17.024;2022-11-21T02:09:31;-2.20;99.90
35043;DHT22;21230;51.170;17.024;2022-11-21T02:11:59;-2.10;99.90
35043;DHT22;21230;51.170;17.024;2022-11-21T02:14:26;-2.10;99.90
35043;DHT22;21230;51.170;17.024;2022-11-21T02:16:52;-2.20;99.90
35043;DHT22;21230;51.170;17.024;2022-11-21T02:19:32;-2.20;99.90
35043;DHT22;21230;51.170;17.024;2022-11-21T02:24:59;-2.10;99.90
35043;DHT22;21230;51.170;17.024;2022-11-21T02:27:24;-2.00;99.90
35043;DHT22;21230;51.170;17.024;2022-11-21T02:29:50;-2.00;99.90
35043;DHT22;21230;51.170;17.024;2022-11-21T02:32:20;-1.90;99.90
35043;DHT22;21230;51.170;17.024;2022-11-21T02:34:46;-1.90;99.90
35043;DHT22;21230;51.170;17.024;2022-11-21T02:37:11;-1.90;99.90
35043;DHT22;21230;51.170;17.024;2022-11-21T02:39:37;-1.80;99.90
35043;DHT22;21230;51.170;17.024;2022-11-21T02:47:32;-1.70;99.90
35043;DHT22;21230;51.170;17.024;2022-11-21T02:50:02;-1.70;99.90
35043;DHT22;21230;51.170;17.024;2022-11-21T02:52:31;-1.60;99.90
35043;DHT22;21230;51.170;17.024;2022-11-21T02:54:57;-1.50;99.90
35043;DHT22;21230;51.170;17.024;2022-11-21T02:57:23;-1.60;99.90
35043;DHT22;21230;51.170;17.024;2022-11-21T02:59:48;-1.50;99.90
35043;DHT22;21230;51.170;17.024;2022-11-21T03:02:14;-1.50;99.90
35043;DHT22;21230;51.170;17.024;2022-11-21T03:04:39;-1.40;99.90
35043;DHT22;21230;51.170;17.024;2022-11-21T03:07:05;-1.40;99.90
35043;DHT22;21230;51.170;17.024;2022-11-21T03:09:31;-1.30;99.90
35043;DHT22;21230;51.170;17.024;2022-11-21T03:11:56;-1.20;99.90
35043;DHT22;21230;51.170;17.024;2022-11-21T03:14:22;-1.20;99.90
35043;DHT22;21230;51.170;17.024;2022-11-21T03:16:47;-1.20;99.90
35043;DHT22;21230;51.170;17.024;2022-11-21T03:19:13;-1.10;99.90
35043;DHT22;21230;51.170;17.024;2022-11-21T03:21:39;-1.10;99.90
35043;DHT22;21230;51.170;17.024;2022-11-21T03:24:04;-1.00;99.90
35043;DHT22;21230;51.170;17.024;2022-11-21T03:26:30;-1.00;99.90
35043;DHT22;21230;51.170;17.024;2022-11-21T03:28:56;-1.00;99.90
35043;DHT22;21230;51.170;17.024;2022-11-21T03:31:22;-1.00;99.90
35043;DHT22;21230;51.170;17.024;2022-11-21T03:33:47;-1.00;99.90
35043;DHT22;21230;51.170;17.024;2022-11-21T03:36:13;-0.90;99.90
35043;DHT22;21230;51.170;17.024;2022-11-21T03:38:38;-0.90;99.90
35043;DHT22;21230;51.170;17.024;2022-11-21T03:41:05;-0.90;99.90
35043;DHT22;21230;51.170;17.024;2022-11-21T03:43:50;-0.90;99.90
35043;DHT22;21230;51.170;17.024;2022-11-21T03:46:16;-0.80;99.90
35043;DHT22;21230;51.170;17.024;2022-11-21T03:48:42;-0.80;99.90
35043;DHT22;21230;51.170;17.024;2022-11-21T03:51:07;-0.80;99.90
35043;DHT22;21230;51.170;17.024;2022-11-21T03:53:33;-0.70;99.90
35043;DHT22;21230;51.170;17.024;2022-11-21T03:55:59;-0.70;99.90
35043;DHT22;21230;51.170;17.024;2022-11-21T03:58:24;-0.70;99.90
35043;DHT22;21230;51.170;17.024;2022-11-21T04:00:50;-0.60;99.90
35043;DHT22;21230;51.170;17.024;2022-11-21T04:03:16;-0.60;99.90
35043;DHT22;21230;51.170;17.024;2022-11-21T04:05:43;-0.70;99.90
35043;DHT22;21230;51.170;17.024;2022-11-21T04:08:09;-0.70;99.90
35043;DHT22;21230;51.170;17.024;2022-11-21T04:10:34;-0.70;99.90
35043;DHT22;21230;51.170;17.024;2022-11-21T04:13:00;-0.70;99.90
35043;DHT22;21230;51.170;17.024;2022-11-21T04:15:25;-0.70;99.90
35043;DHT22;21230;51.170;17.024;2022-11-21T04:17:51;-0.70;99.90
35043;DHT22;21230;51.170;17.024;2022-11-21T04:20:17;-0.70;99.90
35043;DHT22;21230;51.170;17.024;2022-11-21T04:22:43;-0.60;99.90
35043;DHT22;21230;51.170;17.024;2022-11-21T04:25:08;-0.50;99.90
35043;DHT22;21230;51.170;17.024;2022-11-21T04:27:34;-0.50;99.90
35043;DHT22;21230;51.170;17.024;2022-11-21T04:30:00;-0.50;99.90
35043;DHT22;21230;51.170;17.024;2022-11-21T04:32:25;-0.50;99.90
35043;DHT22;21230;51.170;17.024;2022-11-21T04:34:51;-0.50;99.90
35043;DHT22;21230;51.170;17.024;2022-11-21T04:37:17;-0.50;99.90
35043;DHT22;21230;51.170;17.024;2022-11-21T04:39:42;-0.50;99.90
35043;DHT22;21230;51.170;17.024;2022-11-21T04:42:08;-0.40;99.90
35043;DHT22;21230;51.170;17.024;2022-11-21T04:44:34;-0.40;99.90
35043;DHT22;21230;51.170;17.024;2022-11-21T04:46:59;-0.40;99.90
35043;DHT22;21230;51.170;17.024;2022-11-21T04:49:25;-0.40;99.90
35043;DHT22;21230;51.170;17.024;2022-11-21T04:51:51;-0.50;99.90
35043;DHT22;21230;51.170;17.024;2022-11-21T04:54:16;-0.40;99.90
35043;DHT22;21230;51.170;17.024;2022-11-21T04:56:42;-0.40;99.90
35043;DHT22;21230;51.170;17.024;2022-11-21T04:59:07;-0.40;99.90
35043;DHT22;21230;51.170;17.024;2022-11-21T05:01:36;-0.30;99.90
35043;DHT22;21230;51.170;17.024;2022-11-21T05:04:02;-0.30;99.90
35043;DHT22;21230;51.170;17.024;2022-11-21T05:06:27;-0.30;99.90
35043;DHT22;21230;51.170;17.024;2022-11-21T05:08:53;-0.30;99.90
35043;DHT22;21230;51.170;17.024;2022-11-21T05:11:19;-0.30;99.90
35043;DHT22;21230;51.170;17.024;2022-11-21T05:14:03;-0.20;99.90
35043;DHT22;21230;51.170;17.024;2022-11-21T05:16:28;-0.20;99.90
35043;DHT22;21230;51.170;17.024;2022-11-21T05:18:56;-0.30;99.90
35043;DHT22;21230;51.170;17.024;2022-11-21T05:21:22;-0.20;99.90
35043;DHT22;21230;51.170;17.024;2022-11-21T05:23:47;-0.20;99.90
35043;DHT22;21230;51.170;17.024;2022-11-21T05:26:13;-0.20;99.90
35043;DHT22;21230;51.170;17.024;2022-11-21T05:28:38;-0.20;99.90
35043;DHT22;21230;51.170;17.024;2022-11-21T05:31:04;-0.20;99.90
35043;DHT22;21230;51.170;17.024;2022-11-21T05:33:30;-0.10;99.90
35043;DHT22;21230;51.170;17.024;2022-11-21T05:35:55;-0.10;99.90
35043;DHT22;21230;51.170;17.024;2022-11-21T05:38:21;-0.10;99.90
35043;DHT22;21230;51.170;17.024;2022-11-21T05:40:47;0.00;99.90
35043;DHT22;21230;51.170;17.024;2022-11-21T05:43:12;0.00;99.90
35043;DHT22;21230;51.170;17.024;2022-11-21T05:45:56;0.00;99.90
35043;DHT22;21230;51.170;17.024;2022-11-21T05:48:22;0.00;99.90
35043;DHT22;21230;51.170;17.024;2022-11-21T05:50:48;0.00;99.90
35043;DHT22;21230;51.170;17.024;2022-11-21T05:53:14;-0.10;99.90
35043;DHT22;21230;51.170;17.024;2022-11-21T05:55:40;0.00;99.90
35043;DHT22;21230;51.170;17.024;2022-11-21T05:58:05;-0.10;99.90
35043;DHT22;21230;51.170;17.024;2022-11-21T06:00:33;-0.10;99.90
35043;DHT22;21230;51.170;17.024;2022-11-21T06:02:59;0.00;99.90
35043;DHT22;21230;51.170;17.024;2022-11-21T06:05:43;-0.10;99.90
35043;DHT22;21230;51.170;17.024;2022-11-21T06:08:08;0.00;99.90
35043;DHT22;21230;51.170;17.024;2022-11-21T06:10:34;-0.10;99.90
35043;DHT22;21230;51.170;17.024;2022-11-21T06:13:00;0.00;99.90
35043;DHT22;21230;51.170;17.024;2022-11-21T06:15:26;0.00;99.90
35043;DHT22;21230;51.170;17.024;2022-11-21T06:17:52;0.00;99.90
35043;DHT22;21230;51.170;17.024;2022-11-21T06:20:17;0.00;99.90
35043;DHT22;21230;51.170;17.024;2022-11-21T06:22:43;0.00;99.90
35043;DHT22;21230;51.170;17.024;2022-11-21T06:25:08;0.00;99.90
35043;DHT22;21230;51.170;17.024;2022-11-21T06:27:34;0.10;99.90
35043;DHT22;21230;51.170;17.024;2022-11-21T06:30:00;0.10;99.90
35043;DHT22;21230;51.170;17.024;2022-11-21T06:32:25;0.00;99.90
35043;DHT22;21230;51.170;17.024;2022-11-21T06:34:51;0.00;99.90
35043;DHT22;21230;51.170;17.024;2022-11-21T06:37:16;0.00;99.90
35043;DHT22;21230;51.170;17.024;2022-11-21T06:39:42;0.00;99.90
35043;DHT22;21230;51.170;17.024;2022-11-21T06:42:08;0.10;99.90
35043;DHT22;21230;51.170;17.024;2022-11-21T06:44:33;0.00;99.90
35043;DHT22;21230;51.170;17.024;2022-11-21T06:46:59;0.00;99.90
35043;DHT22;21230;51.170;17.024;2022-11-21T06:49:24;0.00;99.90
35043;DHT22;21230;51.170;17.024;2022-11-21T06:51:50;0.00;99.90
35043;DHT22;21230;51.170;17.024;2022-11-21T06:54:16;0.00;99.90
35043;DHT22;21230;51.170;17.024;2022-11-21T06:56:42;0.00;99.90
35043;DHT22;21230;51.170;17.024;2022-11-21T06:59:08;0.00;99.90
35043;DHT22;21230;51.170;17.024;2022-11-21T07:01:33;0.00;99.90
35043;DHT22;21230;51.170;17.024;2022-11-21T07:03:59;0.00;99.90
35043;DHT22;21230;51.170;17.024;2022-11-21T07:06:25;0.10;99.90
35043;DHT22;21230;51.170;17.024;2022-11-21T07:08:54;0.10;99.90
35043;DHT22;21230;51.170;17.024;2022-11-21T07:11:19;0.20;99.90
35043;DHT22;21230;51.170;17.024;2022-11-21T07:13:45;0.10;99.90
35043;DHT22;21230;51.170;17.024;2022-11-21T07:16:11;0.20;99.90
35043;DHT22;21230;51.170;17.024;2022-11-21T07:18:40;0.20;99.90
35043;DHT22;21230;51.170;17.024;2022-11-21T07:21:06;0.20;99.90
35043;DHT22;21230;51.170;17.024;2022-11-21T07:23:33;0.20;99.90
35043;DHT22;21230;51.170;17.024;2022-11-21T07:25:59;0.20;99.90
35043;DHT22;21230;51.170;17.024;2022-11-21T07:28:29;0.20;99.90
35043;DHT22;21230;51.170;17.024;2022-11-21T07:30:57;0.20;99.90
35043;DHT22;21230;51.170;17.024;2022-11-21T07:33:23;0.30;99.90
35043;DHT22;21230;51.170;17.024;2022-11-21T07:35:49;0.30;99.90
35043;DHT22;21230;51.170;17.024;2022-11-21T07:38:15;0.40;99.90
35043;DHT22;21230;51.170;17.024;2022-11-21T07:40:40;0.40;99.90
35043;DHT22;21230;51.170;17.024;2022-11-21T07:43:06;0.40;99.90
35043;DHT22;21230;51.170;17.024;2022-11-21T07:45:32;0.50;99.90
35043;DHT22;21230;51.170;17.024;2022-11-21T07:47:58;0.50;99.90
35043;DHT22;21230;51.170;17.024;2022-11-21T07:50:25;0.60;99.90
35043;DHT22;21230;51.170;17.024;2022-11-21T07:52:50;0.60;99.90
35043;DHT22;21230;51.170;17.024;2022-11-21T07:55:16;0.70;99.90
35043;DHT22;21230;51.170;17.024;2022-11-21T07:57:42;0.70;99.90
35043;DHT22;21230;51.170;17.024;2022-11-21T08:00:07;0.70;99.90
35043;DHT22;21230;51.170;17.024;2022-11-21T08:02:33;0.80;99.90
35043;DHT22;21230;51.170;17.024;2022-11-21T08:04:59;0.80;99.90
35043;DHT22;21230;51.170;17.024;2022-11-21T08:07:25;0.90;99.90
35043;DHT22;21230;51.170;17.024;2022-11-21T08:09:50;1.00;99.90
35043;DHT22;21230;51.170;17.024;2022-11-21T08:12:16;1.00;99.90
35043;DHT22;21230;51.170;17.024;2022-11-21T08:14:42;1.10;99.90
35043;DHT22;21230;51.170;17.024;2022-11-21T08:17:07;1.10;99.90
35043;DHT22;21230;51.170;17.024;2022-11-21T08:19:33;1.10;99.90
35043;DHT22;21230;51.170;17.024;2022-11-21T08:21:59;1.20;99.90
35043;DHT22;21230;51.170;17.024;2022-11-21T08:24:25;1.20;99.90
35043;DHT22;21230;51.170;17.024;2022-11-21T08:26:51;1.30;99.90
35043;DHT22;21230;51.170;17.024;2022-11-21T08:29:16;1.30;99.90
35043;DHT22;21230;51.170;17.024;2022-11-21T08:31:42;1.30;99.90
35043;DHT22;21230;51.170;17.024;2022-11-21T08:34:08;1.40;99.90
35043;DHT22;21230;51.170;17.024;2022-11-21T08:36:34;1.40;99.90
35043;DHT22;21230;51.170;17.024;2022-11-21T08:39:00;1.50;99.90
35043;DHT22;21230;51.170;17.024;2022-11-21T08:41:26;1.50;99.90
35043;DHT22;21230;51.170;17.024;2022-11-21T08:44:10;1.60;99.90
35043;DHT22;21230;51.170;17.024;2022-11-21T08:46:36;1.60;99.90
35043;DHT22;21230;51.170;17.024;2022-11-21T08:49:05;1.60;99.90
35043;DHT22;21230;51.170;17.024;2022-11-21T08:51:31;1.70;99.90
35043;DHT22;21230;51.170;17.024;2022-11-21T08:53:56;1.70;99.90
35043;DHT22;21230;51.170;17.024;2022-11-21T08:56:22;1.80;99.90
35043;DHT22;21230;51.170;17.024;2022-11-21T08:58:51;1.80;99.90
35043;DHT22;21230;51.170;17.024;2022-11-21T09:01:17;1.80;99.90
35043;DHT22;21230;51.170;17.024;2022-11-21T09:03:43;1.80;99.90
35043;DHT22;21230;51.170;17.024;2022-11-21T09:06:09;1.80;99.90
35043;DHT22;21230;51.170;17.024;2022-11-21T09:08:35;1.80;99.90
35043;DHT22;21230;51.170;17.024;2022-11-21T09:11:04;1.90;99.90
35043;DHT22;21230;51.170;17.024;2022-11-21T09:13:30;2.00;99.90
35043;DHT22;21230;51.170;17.024;2022-11-21T09:15:59;2.00;99.90
35043;DHT22;21230;51.170;17.024;2022-11-21T09:18:43;2.10;99.90
35043;DHT22;21230;51.170;17.024;2022-11-21T09:21:15;2.20;99.90
35043;DHT22;21230;51.170;17.024;2022-11-21T09:23:43;2.30;99.90
35043;DHT22;21230;51.170;17.024;2022-11-21T09:26:09;2.40;99.90
35043;DHT22;21230;51.170;17.024;2022-11-21T09:28:35;2.40;99.90
35043;DHT22;21230;51.170;17.024;2022-11-21T09:31:01;2.30;99.90
35043;DHT22;21230;51.170;17.024;2022-11-21T09:33:26;2.30;99.90
35043;DHT22;21230;51.170;17.024;2022-11-21T09:35:52;2.30;99.90
35043;DHT22;21230;51.170;17.024;2022-11-21T09:38:18;2.30;99.90
35043;DHT22;21230;51.170;17.024;2022-11-21T09:40:48;2.30;99.90
35043;DHT22;21230;51.170;17.024;2022-11-21T09:48:27;2.30;99.90
35043;DHT22;21230;51.170;17.024;2022-11-21T09:50:56;2.40;99.90
35043;DHT22;21230;51.170;17.024;2022-11-21T09:53:27;2.40;99.90
35043;DHT22;21230;51.170;17.024;2022-11-21T09:55:56;2.40;99.90
35043;DHT22;21230;51.170;17.024;2022-11-21T09:58:25;2.40;99.90
35043;DHT22;21230;51.170;17.024;2022-11-21T10:00:52;2.50;99.90
35043;DHT22;21230;51.170;17.024;2022-11-21T10:03:19;2.50;99.90
35043;DHT22;21230;51.170;17.024;2022-11-21T10:13:31;3.10;99.90
35043;DHT22;21230;51.170;17.024;2022-11-21T10:21:08;3.40;99.90
35043;DHT22;21230;51.170;17.024;2022-11-21T10:26:23;3.60;99.90
35043;DHT22;21230;51.170;17.024;2022-11-21T10:28:56;3.60;99.90
35043;DHT22;21230;51.170;17.024;2022-11-21T10:31:23;3.60;99.90
35043;DHT22;21230;51.170;17.024;2022-11-21T10:33:50;3.70;99.90
35043;DHT22;21230;51.170;17.024;2022-11-21T10:38:42;3.80;99.90
35043;DHT22;21230;51.170;17.024;2022-11-21T10:41:36;3.80;99.90
35043;DHT22;21230;51.170;17.024;2022-11-21T10:43:58;3.80;99.90
35043;DHT22;21230;51.170;17.024;2022-11-21T10:46:57;3.90;99.90
35043;DHT22;21230;51.170;17.024;2022-11-21T10:49:24;3.90;99.90
35043;DHT22;21230;51.170;17.024;2022-11-21T10:54:16;3.90;99.90
35043;DHT22;21230;51.170;17.024;2022-11-21T10:56:58;3.90;99.90
35043;DHT22;21230;51.170;17.024;2022-11-21T10:59:26;3.90;99.90
35043;DHT22;21230;51.170;17.024;2022-11-21T11:01:57;4.00;99.90
35043;DHT22;21230;51.170;17.024;2022-11-21T11:04:22;4.10;99.90
35043;DHT22;21230;51.170;17.024;2022-11-21T11:06:48;4.10;99.90
35043;DHT22;21230;51.170;17.024;2022-11-21T11:09:21;4.10;99.90
35043;DHT22;21230;51.170;17.024;2022-11-21T11:12:24;4.00;99.90
35043;DHT22;21230;51.170;17.024;2022-11-21T11:15:14;4.10;99.90
35043;DHT22;21230;51.170;17.024;2022-11-21T11:17:40;4.00;99.90
35043;DHT22;21230;51.170;17.024;2022-11-21T11:20:27;4.00;99.90
35043;DHT22;21230;51.170;17.024;2022-11-21T11:22:52;4.00;99.90
35043;DHT22;21230;51.170;17.024;2022-11-21T11:25:18;3.90;99.90
35043;DHT22;21230;51.170;17.024;2022-11-21T11:27:43;4.00;99.90
35043;DHT22;21230;51.170;17.024;2022-11-21T11:30:13;4.00;99.90
35043;DHT22;21230;51.170;17.024;2022-11-21T11:32:39;4.00;99.90
35043;DHT22;21230;51.170;17.024;2022-11-21T11:37:38;4.00;99.90
35043;DHT22;21230;51.170;17.024;2022-11-21T11:45:57;4.00;99.90
35043;DHT22;21230;51.170;17.024;2022-11-21T11:48:52;4.00;99.90
35043;DHT22;21230;51.170;17.024;2022-11-21T11:51:52;4.00;99.90
35043;DHT22;21230;51.170;17.024;2022-11-21T11:54:45;4.10;99.90
35043;DHT22;21230;51.170;17.024;2022-11-21T11:57:26;4.10;99.90
35043;DHT22;21230;51.170;17.024;2022-11-21T12:00:05;4.10;99.90
35043;DHT22;21230;51.170;17.024;2022-11-21T12:02:40;4.10;99.90
35043;DHT22;21230;51.170;17.024;2022-11-21T12:05:08;4.20;99.90
35043;DHT22;21230;51.170;17.024;2022-11-21T12:07:41;4.20;99.90
35043;DHT22;21230;51.170;17.024;2022-11-21T12:12:51;4.10;99.90
35043;DHT22;21230;51.170;17.024;2022-11-21T12:15:24;4.10;99.90
35043;DHT22;21230;51.170;17.024;2022-11-21T12:23:12;3.90;99.90
35043;DHT22;21230;51.170;17.024;2022-11-21T12:25:40;3.80;99.90
35043;DHT22;21230;51.170;17.024;2022-11-21T12:28:09;3.70;99.90
35043;DHT22;21230;51.170;17.024;2022-11-21T12:49:19;3.20;99.90
35043;DHT22;21230;51.170;17.024;2022-11-21T13:05:16;3.00;99.90
35043;DHT22;21230;51.170;17.024;2022-11-21T13:07:42;3.00;99.90
35043;DHT22;21230;51.170;17.024;2022-11-21T13:10:11;3.00;99.90
35043;DHT22;21230;51.170;17.024;2022-11-21T13:12:46;3.00;99.90
35043;DHT22;21230;51.170;17.024;2022-11-21T13:15:15;3.00;99.90
35043;DHT22;21230;51.170;17.024;2022-11-21T13:17:44;2.90;99.90
35043;DHT22;21230;51.170;17.024;2022-11-21T13:25:10;2.90;99.90
35043;DHT22;21230;51.170;17.024;2022-11-21T13:27:37;2.90;99.90
35043;DHT22;21230;51.170;17.024;2022-11-21T13:32:52;2.80;99.90
35043;DHT22;21230;51.170;17.024;2022-11-21T13:38:08;2.80;99.90
35043;DHT22;21230;51.170;17.024;2022-11-21T13:40:37;2.70;99.90
35043;DHT22;21230;51.170;17.024;2022-11-21T13:55:48;2.50;99.90
35043;DHT22;21230;51.170;17.024;2022-11-21T14:03:31;2.30;99.90
35043;DHT22;21230;51.170;17.024;2022-11-21T14:06:04;2.30;99.90
35043;DHT22;21230;51.170;17.024;2022-11-21T14:08:33;2.30;99.90
35043;DHT22;21230;51.170;17.024;2022-11-21T14:11:01;2.20;99.90
35043;DHT22;21230;51.170;17.024;2022-11-21T14:13:42;2.10;99.90
35043;DHT22;21230;51.170;17.024;2022-11-21T14:18:41;2.00;99.90
35043;DHT22;21230;51.170;17.024;2022-11-21T14:21:14;2.00;99.90
35043;DHT22;21230;51.170;17.024;2022-11-21T14:23:41;2.10;99.90
35043;DHT22;21230;51.170;17.024;2022-11-21T14:26:13;2.00;99.90
35043;DHT22;21230;51.170;17.024;2022-11-21T14:28:41;1.90;99.90
35043;DHT22;21230;51.170;17.024;2022-11-21T14:31:10;1.90;99.90
35043;DHT22;21230;51.170;17.024;2022-11-21T14:33:45;1.90;99.90
35043;DHT22;21230;51.170;17.024;2022-11-21T14:36:16;1.80;99.90
35043;DHT22;21230;51.170;17.024;2022-11-21T14:38:46;1.80;99.90
35043;DHT22;21230;51.170;17.024;2022-11-21T14:49:08;1.60;99.90
35043;DHT22;21230;51.170;17.024;2022-11-21T14:51:37;1.60;99.90
35043;DHT22;21230;51.170;17.024;2022-11-21T14:54:03;1.50;99.90
35043;DHT22;21230;51.170;17.024;2022-11-21T14:56:29;1.50;99.90
35043;DHT22;21230;51.170;17.024;2022-11-21T14:58:57;1.50;99.90
35043;DHT22;21230;51.170;17.024;2022-11-21T15:01:27;1.40;99.90
35043;DHT22;21230;51.170;17.024;2022-11-21T15:04:00;1.40;99.90
35043;DHT22;21230;51.170;17.024;2022-11-21T15:06:27;1.40;99.90
35043;DHT22;21230;51.170;17.024;2022-11-21T15:08:54;1.30;99.90
35043;DHT22;21230;51.170;17.024;2022-11-21T15:11:24;1.30;99.90
35043;DHT22;21230;51.170;17.024;2022-11-21T15:14:01;1.30;99.90
35043;DHT22;21230;51.170;17.024;2022-11-21T15:16:28;1.20;99.90
35043;DHT22;21230;51.170;17.024;2022-11-21T15:18:54;1.20;99.90
35043;DHT22;21230;51.170;17.024;2022-11-21T15:21:21;1.20;99.90
35043;DHT22;21230;51.170;17.024;2022-11-21T15:23:46;1.10;99.90
35043;DHT22;21230;51.170;17.024;2022-11-21T15:26:26;1.20;99.90
35043;DHT22;21230;51.170;17.024;2022-11-21T15:28:56;1.20;99.90
35043;DHT22;21230;51.170;17.024;2022-11-21T15:31:22;1.10;99.90
35043;DHT22;21230;51.170;17.024;2022-11-21T15:34:03;1.00;99.90
35043;DHT22;21230;51.170;17.024;2022-11-21T15:36:29;0.90;99.90
35043;DHT22;21230;51.170;17.024;2022-11-21T15:38:56;0.90;99.90
35043;DHT22;21230;51.170;17.024;2022-11-21T15:41:29;0.80;99.90
35043;DHT22;21230;51.170;17.024;2022-11-21T15:44:13;0.80;99.90
35043;DHT22;21230;51.170;17.024;2022-11-21T15:46:41;0.80;99.90
35043;DHT22;21230;51.170;17.024;2022-11-21T15:49:10;0.80;99.90
35043;DHT22;21230;51.170;17.024;2022-11-21T15:51:43;0.80;99.90
35043;DHT22;21230;51.170;17.024;2022-11-21T15:54:10;0.80;99.90
35043;DHT22;21230;51.170;17.024;2022-11-21T15:56:36;0.70;99.90
35043;DHT22;21230;51.170;17.024;2022-11-21T15:59:05;0.70;99.90
35043;DHT22;21230;51.170;17.024;2022-11-21T16:01:36;0.70;99.90
35043;DHT22;21230;51.170;17.024;2022-11-21T16:04:06;0.60;99.90
35043;DHT22;21230;51.170;17.024;2022-11-21T16:06:32;0.60;99.90
35043;DHT22;21230;51.170;17.024;2022-11-21T16:08:58;0.60;99.90
35043;DHT22;21230;51.170;17.024;2022-11-21T16:13:50;0.50;99.90
35043;DHT22;21230;51.170;17.024;2022-11-21T16:16:17;0.40;99.90
35043;DHT22;21230;51.170;17.024;2022-11-21T16:18:54;0.50;99.90
35043;DHT22;21230;51.170;17.024;2022-11-21T16:21:19;0.50;99.90
35043;DHT22;21230;51.170;17.024;2022-11-21T16:27:01;0.50;99.90
35043;DHT22;21230;51.170;17.024;2022-11-21T16:29:27;0.50;99.90
35043;DHT22;21230;51.170;17.024;2022-11-21T16:31:52;0.60;99.90
35043;DHT22;21230;51.170;17.024;2022-11-21T16:34:20;0.50;99.90
35043;DHT22;21230;51.170;17.024;2022-11-21T16:36:56;0.60;99.90
35043;DHT22;21230;51.170;17.024;2022-11-21T16:39:24;0.60;99.90
35043;DHT22;21230;51.170;17.024;2022-11-21T16:42:19;0.60;99.90
35043;DHT22;21230;51.170;17.024;2022-11-21T16:44:44;0.60;99.90
35043;DHT22;21230;51.170;17.024;2022-11-21T16:47:10;0.60;99.90
35043;DHT22;21230;51.170;17.024;2022-11-21T16:49:55;0.60;99.90
35043;DHT22;21230;51.170;17.024;2022-11-21T16:52:35;0.60;99.90
35043;DHT22;21230;51.170;17.024;2022-11-21T16:55:00;0.70;99.90
35043;DHT22;21230;51.170;17.024;2022-11-21T16:57:26;0.60;99.90
35043;DHT22;21230;51.170;17.024;2022-11-21T16:59:52;0.60;99.90
35043;DHT22;21230;51.170;17.024;2022-11-21T17:02:17;0.60;99.90
35043;DHT22;21230;51.170;17.024;2022-11-21T17:04:50;0.60;99.90
35043;DHT22;21230;51.170;17.024;2022-11-21T17:07:16;0.60;99.90
35043;DHT22;21230;51.170;17.024;2022-11-21T17:09:42;0.60;99.90
35043;DHT22;21230;51.170;17.024;2022-11-21T17:12:07;0.60;99.90
35043;DHT22;21230;51.170;17.024;2022-11-21T17:14:33;0.60;99.90
35043;DHT22;21230;51.170;17.024;2022-11-21T17:17:02;0.60;99.90
35043;DHT22;21230;51.170;17.024;2022-11-21T17:19:30;0.60;99.90
35043;DHT22;21230;51.170;17.024;2022-11-21T17:22:02;0.50;99.90
35043;DHT22;21230;51.170;17.024;2022-11-21T17:24:28;0.50;99.90
35043;DHT22;21230;51.170;17.024;2022-11-21T17:26:53;0.50;99.90
35043;DHT22;21230;51.170;17.024;2022-11-21T17:29:19;0.50;99.90
35043;DHT22;21230;51.170;17.024;2022-11-21T17:31:45;0.50;99.90
35043;DHT22;21230;51.170;17.024;2022-11-21T17:34:11;0.50;99.90
35043;DHT22;21230;51.170;17.024;2022-11-21T17:36:37;0.50;99.90
35043;DHT22;21230;51.170;17.024;2022-11-21T17:39:03;0.60;99.90